createdAt,value
2019-04-07T00:05:14.912Z,77.25
2019-04-07T00:10:50.571Z,77.02
2019-04-07T00:16:16.828Z,77.47
2019-04-07T00:21:39.933Z,77.42
2019-04-07T00:27:05.671Z,76.82
2019-04-07T00:32:29.191Z,76.77
2019-04-07T00:37:58.240Z,77.53
2019-04-07T00:43:24.197Z,76.83
2019-04-07T00:48:53.941Z,76.92
2019-04-07T00:54:28.597Z,76.84
2019-04-07T00:59:59.492Z,77.10
2019-04-07T01:05:43.746Z,76.94
2019-04-07T01:11:14.643Z,77.24
2019-04-07T01:16:30.041Z,77.41
2019-04-07T01:22:20.761Z,77.73
2019-04-07T01:27:51.377Z,77.59
2019-04-07T01:33:29.549Z,77.64
2019-04-07T01:39:07.516Z,77.34
2019-04-07T01:44:42.570Z,77.36
2019-04-07T01:50:16.446Z,77.67
2019-04-07T01:56:01.642Z,77.71
2019-04-07T02:01:30.531Z,77.45
2019-04-07T02:07:12.980Z,77.92
2019-04-07T02:12:36.686Z,78.06
2019-04-07T02:18:13.802Z,77.90
2019-04-07T02:23:54.830Z,77.72
2019-04-07T02:29:29.455Z,77.49
2019-04-07T02:34:59.439Z,77.11
2019-04-07T02:40:31.159Z,76.67
2019-04-07T02:45:57.750Z,75.93
2019-04-07T02:51:28.100Z,75.85
2019-04-07T02:57:03.537Z,75.54
2019-04-07T03:02:36.207Z,75.78
2019-04-07T03:07:54.959Z,76.05
2019-04-07T03:13:24.826Z,76.39
2019-04-07T03:18:56.611Z,77.41
2019-04-07T03:24:12.459Z,77.85
2019-04-07T03:29:38.346Z,78.45
2019-04-07T03:35:14.767Z,78.71
2019-04-07T03:40:48.145Z,79.84
2019-04-07T03:46:09.304Z,80.58
2019-04-07T03:51:36.202Z,80.49
2019-04-07T03:56:53.274Z,81.29
2019-04-07T04:02:14.500Z,81.85
2019-04-07T04:07:36.150Z,81.09
2019-04-07T04:12:49.938Z,80.25
2019-04-07T04:18:06.659Z,81.18
2019-04-07T04:23:22.404Z,80.21
2019-04-07T04:28:36.859Z,81.29
2019-04-07T04:33:51.727Z,81.10
2019-04-07T04:39:05.128Z,80.43
2019-04-07T04:44:16.606Z,80.93
2019-04-07T04:49:29.020Z,81.62
2019-04-07T04:54:42.145Z,81.62
2019-04-07T04:59:54.640Z,81.61
2019-04-07T05:05:09.028Z,82.20
2019-04-07T05:10:21.065Z,81.71
2019-04-07T05:15:30.901Z,82.05
2019-04-07T05:20:42.030Z,81.93
2019-04-07T05:25:53.561Z,81.65
2019-04-07T05:31:07.370Z,81.29
2019-04-07T05:36:19.228Z,80.85
2019-04-07T05:41:29.610Z,80.23
2019-04-07T05:46:42.561Z,79.94
2019-04-07T05:51:54.422Z,78.33
2019-04-07T05:57:02.691Z,78.74
2019-04-07T06:02:11.108Z,78.44
2019-04-07T06:07:21.204Z,78.08
2019-04-07T06:12:31.638Z,77.33
2019-04-07T06:17:41.555Z,76.53
2019-04-07T06:22:52.937Z,76.41
2019-04-07T06:28:03.332Z,75.65
2019-04-07T06:33:15.566Z,75.37
2019-04-07T06:38:31.250Z,75.21
2019-04-07T06:43:30.227Z,74.58
2019-04-07T06:48:39.059Z,74.28
2019-04-07T06:53:51.366Z,73.89
2019-04-07T06:59:02.001Z,73.20
2019-04-07T07:04:13.889Z,72.56
2019-04-07T07:09:27.827Z,72.42
2019-04-07T07:14:34.935Z,71.77
2019-04-07T07:19:42.239Z,71.33
2019-04-07T07:24:47.199Z,71.67
2019-04-07T07:29:57.795Z,71.74
2019-04-07T07:35:06.324Z,71.68
2019-04-07T07:40:18.569Z,71.15
2019-04-07T07:45:28.354Z,70.70
2019-04-07T07:50:40.706Z,70.72
2019-04-07T07:55:49.701Z,70.00
2019-04-07T08:01:01.106Z,68.92
2019-04-07T08:06:06.349Z,68.71
2019-04-07T08:11:15.684Z,68.13
2019-04-07T08:16:29.458Z,68.26
2019-04-07T08:21:36.889Z,68.41
2019-04-07T08:26:47.020Z,68.45
2019-04-07T08:31:54.983Z,67.70
2019-04-07T08:37:00.849Z,66.90
2019-04-07T08:42:10.759Z,66.03
2019-04-07T08:47:21.804Z,65.07
2019-04-07T08:52:29.874Z,64.27
2019-04-07T08:57:42.482Z,64.31
2019-04-07T09:03:02.405Z,64.42
2019-04-07T09:08:06.065Z,62.66
2019-04-07T09:13:15.882Z,62.38
2019-04-07T09:18:28.479Z,61.65
2019-04-07T09:23:35.464Z,62.02
2019-04-07T09:28:45.366Z,61.19
2019-04-07T09:33:56.243Z,59.60
2019-04-07T09:39:05.642Z,59.21
2019-04-07T09:44:14.705Z,58.72
2019-04-07T09:49:25.655Z,57.64
2019-04-07T09:54:32.443Z,57.79
2019-04-07T09:59:40.446Z,57.67
2019-04-07T10:04:54.687Z,58.07
2019-04-07T10:10:12.488Z,55.56
2019-04-07T10:15:16.519Z,55.51
2019-04-07T10:20:25.992Z,56.35
2019-04-07T10:25:37.204Z,53.03
2019-04-07T10:30:39.326Z,53.49
2019-04-07T10:35:47.774Z,52.94
2019-04-07T10:40:56.687Z,52.80
2019-04-07T10:46:04.402Z,52.97
2019-04-07T10:51:07.993Z,52.13
2019-04-07T10:56:16.570Z,49.46
2019-04-07T11:01:23.286Z,49.32
2019-04-07T11:06:29.466Z,50.66
2019-04-07T11:11:39.055Z,50.21
2019-04-07T11:16:48.532Z,50.95
2019-04-07T11:21:56.741Z,49.90
2019-04-07T11:27:04.913Z,48.61
2019-04-07T11:32:13.945Z,47.40
2019-04-07T11:37:23.372Z,48.19
2019-04-07T11:42:33.861Z,46.58
2019-04-07T11:47:42.812Z,48.16
2019-04-07T11:52:52.712Z,46.71
2019-04-07T11:58:11.647Z,45.13
2019-04-07T12:03:11.715Z,44.62
2019-04-07T12:08:20.615Z,46.45
2019-04-07T12:13:31.290Z,46.25
2019-04-07T12:18:39.698Z,44.09
2019-04-07T12:23:49.709Z,44.88
2019-04-07T12:28:58.452Z,44.76
2019-04-07T12:34:09.570Z,44.18
2019-04-07T12:39:18.917Z,44.09
2019-04-07T12:44:28.988Z,42.88
2019-04-07T12:49:33.229Z,42.09
2019-04-07T12:54:43.658Z,43.20
2019-04-07T12:59:51.678Z,43.02
2019-04-07T13:05:05.084Z,38.43
2019-04-07T13:10:13.084Z,40.08
2019-04-07T13:15:23.462Z,40.68
2019-04-07T13:20:33.239Z,39.59
2019-04-07T13:25:41.830Z,39.72
2019-04-07T13:30:50.924Z,38.75
2019-04-07T13:36:00.666Z,38.36
2019-04-07T13:41:08.427Z,40.15
2019-04-07T13:46:27.861Z,38.85
2019-04-07T13:51:32.343Z,38.85
2019-04-07T13:56:49.795Z,39.87
2019-04-07T14:01:58.093Z,39.83
2019-04-07T14:07:11.644Z,38.65
2019-04-07T14:12:22.714Z,43.18
2019-04-07T14:17:32.727Z,40.33
2019-04-07T14:22:39.947Z,37.34
2019-04-07T14:27:48.688Z,36.55
2019-04-07T14:32:58.441Z,38.99
2019-04-07T14:38:02.656Z,40.41
2019-04-07T14:43:17.777Z,37.75
2019-04-07T14:48:27.125Z,39.88
2019-04-07T14:53:37.699Z,39.89
2019-04-07T14:58:51.465Z,39.31
2019-04-07T15:03:59.949Z,37.61
2019-04-07T15:09:08.306Z,38.73
2019-04-07T15:14:18.012Z,39.67
2019-04-07T15:19:28.868Z,38.45
2019-04-07T15:24:38.522Z,37.66
2019-04-07T15:29:47.343Z,38.68
2019-04-07T15:34:55.917Z,37.38
2019-04-07T15:40:06.898Z,38.24
2019-04-07T15:45:16.176Z,37.77
2019-04-07T15:50:29.276Z,37.92
2019-04-07T15:55:46.706Z,37.57
2019-04-07T16:00:47.035Z,40.85
2019-04-07T16:05:50.123Z,39.94
2019-04-07T16:11:00.682Z,39.94
2019-04-07T16:16:11.333Z,40.30
2019-04-07T16:21:22.769Z,40.42
2019-04-07T16:26:35.881Z,38.45
2019-04-07T16:31:45.469Z,39.32
2019-04-07T16:36:59.361Z,35.86
2019-04-07T16:42:10.901Z,39.57
2019-04-07T16:47:25.694Z,40.06
2019-04-07T16:52:35.251Z,40.71
2019-04-07T16:57:46.171Z,40.13
2019-04-07T17:02:55.812Z,39.36
2019-04-07T17:08:05.473Z,39.70
2019-04-07T17:13:23.836Z,41.53
2019-04-07T17:18:41.300Z,42.45
2019-04-07T17:23:53.209Z,43.62
2019-04-07T17:29:04.960Z,42.89
2019-04-07T17:34:15.643Z,41.80
2019-04-07T17:39:26.094Z,41.37
2019-04-07T17:44:36.774Z,40.34
2019-04-07T17:49:56.653Z,40.31
2019-04-07T17:55:04.296Z,40.39
2019-04-07T18:00:16.455Z,44.82
2019-04-07T18:05:26.595Z,45.30
2019-04-07T18:10:37.001Z,44.96
2019-04-07T18:15:48.765Z,45.41
2019-04-07T18:20:57.973Z,45.36
2019-04-07T18:26:09.900Z,46.04
2019-04-07T18:31:22.203Z,46.21
2019-04-07T18:36:35.354Z,45.43
2019-04-07T18:41:44.697Z,47.06
2019-04-07T18:46:55.177Z,43.97
2019-04-07T18:52:04.274Z,47.35
2019-04-07T18:57:14.040Z,48.23
2019-04-07T19:02:20.494Z,48.76
2019-04-07T19:07:27.202Z,49.08
2019-04-07T19:12:34.406Z,49.08
2019-04-07T19:17:41.176Z,49.85
2019-04-07T19:22:50.699Z,49.54
2019-04-07T19:28:02.371Z,49.95
2019-04-07T19:33:09.820Z,50.57
2019-04-07T19:38:20.951Z,51.17
2019-04-07T19:43:32.974Z,50.72
2019-04-07T19:48:42.705Z,50.57
2019-04-07T19:53:50.258Z,50.73
2019-04-07T19:58:57.653Z,50.64
2019-04-07T20:04:05.390Z,50.85
2019-04-07T20:09:17.936Z,51.14
2019-04-07T20:14:27.107Z,51.14
2019-04-07T20:19:38.577Z,50.60
2019-04-07T20:24:48.830Z,50.28
2019-04-07T20:30:01.053Z,50.56
2019-04-07T20:35:16.466Z,51.07
2019-04-07T20:40:37.533Z,50.95
2019-04-07T20:45:47.413Z,50.95
2019-04-07T20:50:58.328Z,51.99
2019-04-07T20:56:14.462Z,52.18
2019-04-07T21:01:28.555Z,52.24
2019-04-07T21:06:42.394Z,51.78
2019-04-07T21:11:54.484Z,51.60
2019-04-07T21:17:10.721Z,52.73
2019-04-07T21:22:27.103Z,53.08
2019-04-07T21:27:49.038Z,52.26
2019-04-07T21:33:02.649Z,52.54
2019-04-07T21:38:24.267Z,52.74
2019-04-07T21:43:43.485Z,53.41
2019-04-07T21:49:02.563Z,54.38
2019-04-07T21:54:19.490Z,54.91
2019-04-07T21:59:38.176Z,55.01
2019-04-07T22:05:01.435Z,55.28
2019-04-07T22:10:22.006Z,55.63
2019-04-07T22:15:47.398Z,55.92
2019-04-07T22:21:01.235Z,56.13
2019-04-07T22:26:23.033Z,56.09
2019-04-07T22:31:31.539Z,55.91
2019-04-07T22:36:53.762Z,55.61
2019-04-07T22:42:22.428Z,55.50
2019-04-07T22:47:39.984Z,55.24
2019-04-07T22:53:01.797Z,54.88
2019-04-07T22:58:31.890Z,54.86
2019-04-07T23:03:59.753Z,54.85
2019-04-07T23:09:22.991Z,54.52
2019-04-07T23:14:44.233Z,54.54
2019-04-07T23:20:13.055Z,54.06
2019-04-07T23:25:38.606Z,54.24
2019-04-07T23:31:07.585Z,54.32
2019-04-07T23:36:44.310Z,54.45
2019-04-07T23:42:15.736Z,54.00
2019-04-07T23:47:51.277Z,54.29
2019-04-07T23:53:32.758Z,54.42
2019-04-07T23:59:15.115Z,54.76
